Aligote — V7TQ2 — position and weather

sailwx.info

Track history (hours):
 
Tides and Currents Weather Stations Pressure Air Temp Water Temp Dewpoint Dewpoint Depression Visibility Wind Speed Wind Dir Waves Ship Positions

Aligote

Last reported at 2018-Feb-09 23:33 UTC. Time now 2018-Feb-20 13:49 UTC.
Position N 01°12' E 103°35'.
Warning: this ship's position is 10 days out of date.

Length 230 m; draft 8 m.

Type: Tanker. MMSI: 538003857.

Date/timePositionNaut miles runAvg speedWind from/ knotsBaromVisibWave heightAir tempDewpointWater temp
2018-Feb-09 23:33N 01°12' E 103°35'113.0
2018-Feb-09 23:26N 01°12' E 103°36'512.0
2018-Feb-09 23:00N 01°10' E 103°41'312.1
2018-Feb-09 22:45N 01°09' E 103°44'  
2018-Feb-02 01:53N 22°29' E 120°05'4 9.9
2018-Feb-02 01:30N 22°31' E 120°09'4 8.6
2018-Feb-02 01:01N 22°33' E 120°13'5 9.0
2018-Feb-02 00:30N 22°33' E 120°18'2 4.2
2018-Feb-02 00:00N 22°32' E 120°20'0 0.0
2018-Feb-01 23:30N 22°32' E 120°20'0 0.0
2018-Feb-01 23:00N 22°32' E 120°20'0 0.0
2018-Feb-01 22:00N 22°32' E 120°20'0 0.0
2018-Feb-01 21:27N 22°32' E 120°20'0 0.0
2018-Feb-01 19:30N 22°32' E 120°20'0 0.0
2018-Feb-01 19:00N 22°32' E 120°20'0 0.0
2018-Feb-01 18:30N 22°32' E 120°20'0 0.0
2018-Feb-01 18:00N 22°32' E 120°20'0 0.0
2018-Feb-01 17:30N 22°32' E 120°20'0 0.0
2018-Feb-01 17:00N 22°32' E 120°20'0 0.0
2018-Feb-01 16:27N 22°32' E 120°20'0 0.0
2018-Feb-01 16:00N 22°32' E 120°20'0 0.0
2018-Feb-01 15:30N 22°32' E 120°20'0 0.0
2018-Feb-01 15:00N 22°32' E 120°20'0 0.0
2018-Feb-01 13:30N 22°32' E 120°20'0 0.0
2018-Feb-01 13:00N 22°32' E 120°20'0 0.0
2018-Feb-01 12:30N 22°32' E 120°20'0 0.0
2018-Feb-01 12:00N 22°32' E 120°20'0 0.0
2018-Feb-01 10:57N 22°32' E 120°20'0 0.0
2018-Feb-01 10:30N 22°32' E 120°20'0 0.0
2018-Feb-01 10:00N 22°32' E 120°20'0 0.0
2018-Feb-01 09:30N 22°32' E 120°20'0 0.0
2018-Feb-01 09:00N 22°32' E 120°20'0 0.0
2018-Feb-01 08:30N 22°32' E 120°20'0 0.0
2018-Feb-01 07:30N 22°32' E 120°20'0 0.0
2018-Feb-01 07:00N 22°32' E 120°20'0 0.0
2018-Feb-01 06:30N 22°32' E 120°20'0 0.0
2018-Feb-01 06:00N 22°32' E 120°20'0 0.0
2018-Feb-01 05:30N 22°32' E 120°20'0 0.0
2018-Feb-01 04:51N 22°32' E 120°20'0 0.0
2018-Feb-01 04:30N 22°32' E 120°20'0 0.0
2018-Feb-01 03:57N 22°32' E 120°20'0 0.0
2018-Feb-01 02:57N 22°32' E 120°20'0 0.0
2018-Feb-01 02:30N 22°32' E 120°20'0 0.0
2018-Feb-01 02:00N 22°32' E 120°20'0 0.0
2018-Feb-01 01:30N 22°32' E 120°20'0 0.0
2018-Feb-01 01:00N 22°32' E 120°20'0 0.0
2018-Feb-01 00:30N 22°32' E 120°20'0 0.0
2018-Jan-31 23:54N 22°32' E 120°20'0 0.0
2018-Jan-31 23:00N 22°32' E 120°20'0 0.0
2018-Jan-31 22:30N 22°32' E 120°20'0 0.0
2018-Jan-31 21:00N 22°32' E 120°20'0 0.0
2018-Jan-31 20:30N 22°32' E 120°20'0 0.0
2018-Jan-31 20:00N 22°32' E 120°20'0 0.0
2018-Jan-31 19:30N 22°32' E 120°20'0 0.0
2018-Jan-31 19:00N 22°32' E 120°20'0 0.0
2018-Jan-31 18:30N 22°32' E 120°20'0 0.0
2018-Jan-31 18:00N 22°32' E 120°20'0 0.0
2018-Jan-31 17:30N 22°32' E 120°20'0 0.0
2018-Jan-31 17:00N 22°32' E 120°20'0 0.0
2018-Jan-31 16:30N 22°32' E 120°20'0 0.0
2018-Jan-31 16:00N 22°32' E 120°20'0 0.0
2018-Jan-31 15:30N 22°32' E 120°20'0 0.0
2018-Jan-31 15:00N 22°32' E 120°20'0 0.0
2018-Jan-31 14:30N 22°32' E 120°20'0 0.0
2018-Jan-31 13:00N 22°32' E 120°20'0 0.0
2018-Jan-31 12:24N 22°32' E 120°20'0 0.0
2018-Jan-31 12:00N 22°32' E 120°20'0 0.0
2018-Jan-31 11:30N 22°32' E 120°20'0 0.0
2018-Jan-31 11:00N 22°32' E 120°20'0 0.0
2018-Jan-31 10:30N 22°32' E 120°20'0 0.0
2018-Jan-31 10:00N 22°32' E 120°20'0 0.0
2018-Jan-31 09:30N 22°32' E 120°20'0 0.3
2018-Jan-31 09:00N 22°33' E 120°20'2 4.7
2018-Jan-31 08:30N 22°33' E 120°18'2 3.4
2018-Jan-31 08:01N 22°32' E 120°16'2 3.7
2018-Jan-31 07:30N 22°32' E 120°14'5 9.7
2018-Jan-31 07:00N 22°29' E 120°10'  
Track history (hours):
 
Tides and Currents Weather Stations Pressure Air Temp Water Temp Dewpoint Dewpoint Depression Visibility Wind Speed Wind Dir Waves Ship Positions

Aligote

Last reported at 2018-Feb-09 23:33 UTC. Time now 2018-Feb-20 13:49 UTC.
Position N 01°12' E 103°35'.
Warning: this ship's position is 10 days out of date.

Length 230 m; draft 8 m.

Type: Tanker. MMSI: 538003857.

Date/timePositionNaut miles runAvg speedWind from/ knotsBaromVisibWave heightAir tempDewpointWater temp
2018-Feb-09 23:33N 01°12' E 103°35'113.0
2018-Feb-09 23:26N 01°12' E 103°36'512.0
2018-Feb-09 23:00N 01°10' E 103°41'312.1
2018-Feb-09 22:45N 01°09' E 103°44'  
2018-Feb-02 01:53N 22°29' E 120°05'4 9.9
2018-Feb-02 01:30N 22°31' E 120°09'4 8.6
2018-Feb-02 01:01N 22°33' E 120°13'5 9.0
2018-Feb-02 00:30N 22°33' E 120°18'2 4.2
2018-Feb-02 00:00N 22°32' E 120°20'0 0.0
2018-Feb-01 23:30N 22°32' E 120°20'0 0.0
2018-Feb-01 23:00N 22°32' E 120°20'0 0.0
2018-Feb-01 22:00N 22°32' E 120°20'0 0.0
2018-Feb-01 21:27N 22°32' E 120°20'0 0.0
2018-Feb-01 19:30N 22°32' E 120°20'0 0.0
2018-Feb-01 19:00N 22°32' E 120°20'0 0.0
2018-Feb-01 18:30N 22°32' E 120°20'0 0.0
2018-Feb-01 18:00N 22°32' E 120°20'0 0.0
2018-Feb-01 17:30N 22°32' E 120°20'0 0.0
2018-Feb-01 17:00N 22°32' E 120°20'0 0.0
2018-Feb-01 16:27N 22°32' E 120°20'0 0.0
2018-Feb-01 16:00N 22°32' E 120°20'0 0.0
2018-Feb-01 15:30N 22°32' E 120°20'0 0.0
2018-Feb-01 15:00N 22°32' E 120°20'0 0.0
2018-Feb-01 13:30N 22°32' E 120°20'0 0.0
2018-Feb-01 13:00N 22°32' E 120°20'0 0.0
2018-Feb-01 12:30N 22°32' E 120°20'0 0.0
2018-Feb-01 12:00N 22°32' E 120°20'0 0.0
2018-Feb-01 10:57N 22°32' E 120°20'0 0.0
2018-Feb-01 10:30N 22°32' E 120°20'0 0.0
2018-Feb-01 10:00N 22°32' E 120°20'0 0.0
2018-Feb-01 09:30N 22°32' E 120°20'0 0.0
2018-Feb-01 09:00N 22°32' E 120°20'0 0.0
2018-Feb-01 08:30N 22°32' E 120°20'0 0.0
2018-Feb-01 07:30N 22°32' E 120°20'0 0.0
2018-Feb-01 07:00N 22°32' E 120°20'0 0.0
2018-Feb-01 06:30N 22°32' E 120°20'0 0.0
2018-Feb-01 06:00N 22°32' E 120°20'0 0.0
2018-Feb-01 05:30N 22°32' E 120°20'0 0.0
2018-Feb-01 04:51N 22°32' E 120°20'0 0.0
2018-Feb-01 04:30N 22°32' E 120°20'0 0.0
2018-Feb-01 03:57N 22°32' E 120°20'0 0.0
2018-Feb-01 02:57N 22°32' E 120°20'0 0.0
2018-Feb-01 02:30N 22°32' E 120°20'0 0.0
2018-Feb-01 02:00N 22°32' E 120°20'0 0.0
2018-Feb-01 01:30N 22°32' E 120°20'0 0.0
2018-Feb-01 01:00N 22°32' E 120°20'0 0.0
2018-Feb-01 00:30N 22°32' E 120°20'0 0.0
2018-Jan-31 23:54N 22°32' E 120°20'0 0.0
2018-Jan-31 23:00N 22°32' E 120°20'0 0.0
2018-Jan-31 22:30N 22°32' E 120°20'0 0.0
2018-Jan-31 21:00N 22°32' E 120°20'0 0.0
2018-Jan-31 20:30N 22°32' E 120°20'0 0.0
2018-Jan-31 20:00N 22°32' E 120°20'0 0.0
2018-Jan-31 19:30N 22°32' E 120°20'0 0.0
2018-Jan-31 19:00N 22°32' E 120°20'0 0.0
2018-Jan-31 18:30N 22°32' E 120°20'0 0.0
2018-Jan-31 18:00N 22°32' E 120°20'0 0.0
2018-Jan-31 17:30N 22°32' E 120°20'0 0.0
2018-Jan-31 17:00N 22°32' E 120°20'0 0.0
2018-Jan-31 16:30N 22°32' E 120°20'0 0.0
2018-Jan-31 16:00N 22°32' E 120°20'0 0.0
2018-Jan-31 15:30N 22°32' E 120°20'0 0.0
2018-Jan-31 15:00N 22°32' E 120°20'0 0.0
2018-Jan-31 14:30N 22°32' E 120°20'0 0.0
2018-Jan-31 13:00N 22°32' E 120°20'0 0.0
2018-Jan-31 12:24N 22°32' E 120°20'0 0.0
2018-Jan-31 12:00N 22°32' E 120°20'0 0.0
2018-Jan-31 11:30N 22°32' E 120°20'0 0.0
2018-Jan-31 11:00N 22°32' E 120°20'0 0.0
2018-Jan-31 10:30N 22°32' E 120°20'0 0.0
2018-Jan-31 10:00N 22°32' E 120°20'0 0.0
2018-Jan-31 09:30N 22°32' E 120°20'0 0.3
2018-Jan-31 09:00N 22°33' E 120°20'2 4.7
2018-Jan-31 08:30N 22°33' E 120°18'2 3.4
2018-Jan-31 08:01N 22°32' E 120°16'2 3.7
2018-Jan-31 07:30N 22°32' E 120°14'5 9.7
2018-Jan-31 07:00N 22°29' E 120°10'  

Dump ship's entire track history